sensor_id;sensor_type;location;lat;lon;timestamp;P1;durP1;ratioP1;P2;durP2;ratioP2
20589;SDS011;10453;50.810;12.540;2022-11-20T00:01:11;55.00;;;24.45;;
20589;SDS011;10453;50.810;12.540;2022-11-20T00:05:33;54.88;;;24.65;;
20589;SDS011;10453;50.810;12.540;2022-11-20T00:14:08;49.55;;;21.63;;
20589;SDS011;10453;50.810;12.540;2022-11-20T00:18:27;51.67;;;23.55;;
20589;SDS011;10453;50.810;12.540;2022-11-20T00:22:44;49.50;;;22.10;;
20589;SDS011;10453;50.810;12.540;2022-11-20T00:27:02;54.42;;;24.13;;
20589;SDS011;10453;50.810;12.540;2022-11-20T00:31:19;53.20;;;23.25;;
20589;SDS011;10453;50.810;12.540;2022-11-20T00:35:36;49.60;;;22.83;;
20589;SDS011;10453;50.810;12.540;2022-11-20T00:39:53;53.83;;;23.10;;
20589;SDS011;10453;50.810;12.540;2022-11-20T00:44:11;51.30;;;22.90;;
20589;SDS011;10453;50.810;12.540;2022-11-20T00:48:28;48.15;;;22.20;;
20589;SDS011;10453;50.810;12.540;2022-11-20T00:57:02;51.15;;;22.73;;
20589;SDS011;10453;50.810;12.540;2022-11-20T01:01:20;47.25;;;21.65;;
20589;SDS011;10453;50.810;12.540;2022-11-20T01:05:42;47.13;;;21.98;;
20589;SDS011;10453;50.810;12.540;2022-11-20T01:09:59;53.05;;;22.35;;
20589;SDS011;10453;50.810;12.540;2022-11-20T01:18:35;45.65;;;21.20;;
20589;SDS011;10453;50.810;12.540;2022-11-20T01:22:53;53.53;;;22.20;;
20589;SDS011;10453;50.810;12.540;2022-11-20T01:27:11;50.15;;;22.45;;
20589;SDS011;10453;50.810;12.540;2022-11-20T01:31:29;52.95;;;23.42;;
20589;SDS011;10453;50.810;12.540;2022-11-20T01:35:51;54.08;;;23.63;;
20589;SDS011;10453;50.810;12.540;2022-11-20T01:40:09;49.13;;;22.10;;
20589;SDS011;10453;50.810;12.540;2022-11-20T01:49:04;52.85;;;23.08;;
20589;SDS011;10453;50.810;12.540;2022-11-20T01:53:33;47.53;;;21.98;;
20589;SDS011;10453;50.810;12.540;2022-11-20T01:57:52;50.15;;;22.30;;
20589;SDS011;10453;50.810;12.540;2022-11-20T02:02:11;48.95;;;22.52;;
20589;SDS011;10453;50.810;12.540;2022-11-20T02:06:29;45.42;;;20.17;;
20589;SDS011;10453;50.810;12.540;2022-11-20T02:10:47;38.80;;;19.58;;
20589;SDS011;10453;50.810;12.540;2022-11-20T02:15:05;45.53;;;19.85;;
20589;SDS011;10453;50.810;12.540;2022-11-20T02:28:35;44.60;;;18.70;;
20589;SDS011;10453;50.810;12.540;2022-11-20T02:32:53;41.58;;;19.40;;
20589;SDS011;10453;50.810;12.540;2022-11-20T02:37:10;40.75;;;19.13;;
20589;SDS011;10453;50.810;12.540;2022-11-20T02:45:49;36.05;;;16.25;;
20589;SDS011;10453;50.810;12.540;2022-11-20T02:50:06;36.72;;;17.05;;
20589;SDS011;10453;50.810;12.540;2022-11-20T02:58:41;36.53;;;16.33;;
20589;SDS011;10453;50.810;12.540;2022-11-20T03:02:58;43.25;;;19.80;;
20589;SDS011;10453;50.810;12.540;2022-11-20T03:07:16;33.97;;;16.30;;
20589;SDS011;10453;50.810;12.540;2022-11-20T03:11:33;35.85;;;17.98;;
20589;SDS011;10453;50.810;12.540;2022-11-20T03:15:50;31.38;;;13.57;;
20589;SDS011;10453;50.810;12.540;2022-11-20T03:20:07;30.67;;;14.70;;
20589;SDS011;10453;50.810;12.540;2022-11-20T03:24:25;132.40;;;53.70;;
20589;SDS011;10453;50.810;12.540;2022-11-20T03:28:47;66.55;;;27.98;;
20589;SDS011;10453;50.810;12.540;2022-11-20T03:33:05;32.65;;;14.85;;
20589;SDS011;10453;50.810;12.540;2022-11-20T03:37:22;29.23;;;13.65;;
20589;SDS011;10453;50.810;12.540;2022-11-20T03:41:40;27.13;;;13.43;;
20589;SDS011;10453;50.810;12.540;2022-11-20T03:45:58;27.30;;;12.75;;
20589;SDS011;10453;50.810;12.540;2022-11-20T03:54:33;27.38;;;11.52;;
20589;SDS011;10453;50.810;12.540;2022-11-20T03:58:50;24.35;;;11.70;;
20589;SDS011;10453;50.810;12.540;2022-11-20T04:03:07;26.55;;;11.88;;
20589;SDS011;10453;50.810;12.540;2022-11-20T04:07:25;24.20;;;11.20;;
20589;SDS011;10453;50.810;12.540;2022-11-20T04:11:42;20.98;;;10.18;;
20589;SDS011;10453;50.810;12.540;2022-11-20T04:15:59;23.83;;;9.50;;
20589;SDS011;10453;50.810;12.540;2022-11-20T04:20:16;25.52;;;10.80;;
20589;SDS011;10453;50.810;12.540;2022-11-20T04:24:34;24.95;;;11.07;;
20589;SDS011;10453;50.810;12.540;2022-11-20T04:28:51;25.83;;;10.80;;
20589;SDS011;10453;50.810;12.540;2022-11-20T04:37:26;22.60;;;10.20;;
20589;SDS011;10453;50.810;12.540;2022-11-20T04:41:43;20.67;;;10.02;;
20589;SDS011;10453;50.810;12.540;2022-11-20T04:46:00;24.15;;;10.15;;
20589;SDS011;10453;50.810;12.540;2022-11-20T04:50:18;20.45;;;10.38;;
20589;SDS011;10453;50.810;12.540;2022-11-20T04:54:35;23.80;;;10.68;;
20589;SDS011;10453;50.810;12.540;2022-11-20T04:58:52;22.70;;;11.10;;
20589;SDS011;10453;50.810;12.540;2022-11-20T05:03:09;22.25;;;10.38;;
20589;SDS011;10453;50.810;12.540;2022-11-20T05:07:27;25.13;;;10.85;;
20589;SDS011;10453;50.810;12.540;2022-11-20T05:11:44;21.85;;;10.98;;
20589;SDS011;10453;50.810;12.540;2022-11-20T05:16:08;23.10;;;10.85;;
20589;SDS011;10453;50.810;12.540;2022-11-20T05:20:27;23.60;;;11.52;;
20589;SDS011;10453;50.810;12.540;2022-11-20T05:24:44;23.88;;;10.98;;
20589;SDS011;10453;50.810;12.540;2022-11-20T05:29:01;25.40;;;11.05;;
20589;SDS011;10453;50.810;12.540;2022-11-20T05:33:18;20.80;;;10.50;;
20589;SDS011;10453;50.810;12.540;2022-11-20T05:41:53;23.50;;;9.98;;
20589;SDS011;10453;50.810;12.540;2022-11-20T05:46:29;22.70;;;9.70;;
20589;SDS011;10453;50.810;12.540;2022-11-20T05:50:47;25.20;;;11.05;;
20589;SDS011;10453;50.810;12.540;2022-11-20T05:55:04;22.05;;;10.50;;
20589;SDS011;10453;50.810;12.540;2022-11-20T05:59:22;23.90;;;10.38;;
20589;SDS011;10453;50.810;12.540;2022-11-20T06:08:00;20.02;;;8.80;;
20589;SDS011;10453;50.810;12.540;2022-11-20T06:12:17;24.33;;;10.05;;
20589;SDS011;10453;50.810;12.540;2022-11-20T06:16:34;22.42;;;9.80;;
20589;SDS011;10453;50.810;12.540;2022-11-20T06:20:58;22.90;;;10.23;;
20589;SDS011;10453;50.810;12.540;2022-11-20T06:25:16;20.92;;;9.52;;
20589;SDS011;10453;50.810;12.540;2022-11-20T06:29:34;22.80;;;10.05;;
20589;SDS011;10453;50.810;12.540;2022-11-20T06:38:09;54.25;;;20.38;;
20589;SDS011;10453;50.810;12.540;2022-11-20T06:42:26;28.38;;;12.48;;
20589;SDS011;10453;50.810;12.540;2022-11-20T06:46:43;36.17;;;14.15;;
20589;SDS011;10453;50.810;12.540;2022-11-20T06:51:02;24.67;;;12.65;;
20589;SDS011;10453;50.810;12.540;2022-11-20T06:55:20;25.13;;;11.73;;
20589;SDS011;10453;50.810;12.540;2022-11-20T06:59:38;21.52;;;10.35;;
20589;SDS011;10453;50.810;12.540;2022-11-20T07:03:55;20.75;;;10.30;;
20589;SDS011;10453;50.810;12.540;2022-11-20T07:08:12;34.63;;;15.73;;
20589;SDS011;10453;50.810;12.540;2022-11-20T07:12:29;52.50;;;21.83;;
20589;SDS011;10453;50.810;12.540;2022-11-20T07:16:47;35.70;;;15.13;;
20589;SDS011;10453;50.810;12.540;2022-11-20T07:21:05;38.40;;;17.90;;
20589;SDS011;10453;50.810;12.540;2022-11-20T07:25:25;35.50;;;16.92;;
20589;SDS011;10453;50.810;12.540;2022-11-20T07:29:43;33.85;;;14.50;;
20589;SDS011;10453;50.810;12.540;2022-11-20T07:34:00;27.90;;;12.38;;
20589;SDS011;10453;50.810;12.540;2022-11-20T07:38:17;26.42;;;14.13;;
20589;SDS011;10453;50.810;12.540;2022-11-20T07:42:34;23.95;;;11.80;;
20589;SDS011;10453;50.810;12.540;2022-11-20T07:46:52;23.25;;;12.20;;
20589;SDS011;10453;50.810;12.540;2022-11-20T07:51:09;34.55;;;16.77;;
20589;SDS011;10453;50.810;12.540;2022-11-20T07:55:26;33.25;;;15.23;;
20589;SDS011;10453;50.810;12.540;2022-11-20T07:59:43;26.50;;;13.98;;
20589;SDS011;10453;50.810;12.540;2022-11-20T08:04:02;27.52;;;13.52;;
20589;SDS011;10453;50.810;12.540;2022-11-20T08:08:20;38.30;;;19.85;;
20589;SDS011;10453;50.810;12.540;2022-11-20T08:12:46;28.33;;;15.80;;
20589;SDS011;10453;50.810;12.540;2022-11-20T08:17:23;37.85;;;21.73;;
20589;SDS011;10453;50.810;12.540;2022-11-20T08:21:40;32.53;;;18.83;;
20589;SDS011;10453;50.810;12.540;2022-11-20T08:25:57;34.63;;;17.70;;
20589;SDS011;10453;50.810;12.540;2022-11-20T08:30:15;29.42;;;15.38;;
20589;SDS011;10453;50.810;12.540;2022-11-20T08:34:32;26.58;;;13.70;;
20589;SDS011;10453;50.810;12.540;2022-11-20T08:38:53;25.65;;;13.73;;
20589;SDS011;10453;50.810;12.540;2022-11-20T08:43:11;26.13;;;13.15;;
20589;SDS011;10453;50.810;12.540;2022-11-20T08:47:29;30.95;;;16.83;;
20589;SDS011;10453;50.810;12.540;2022-11-20T08:51:46;31.95;;;18.00;;
20589;SDS011;10453;50.810;12.540;2022-11-20T08:56:08;29.75;;;16.85;;
20589;SDS011;10453;50.810;12.540;2022-11-20T09:00:29;34.15;;;17.52;;
20589;SDS011;10453;50.810;12.540;2022-11-20T09:04:46;36.80;;;20.00;;
20589;SDS011;10453;50.810;12.540;2022-11-20T09:09:03;31.23;;;19.20;;
20589;SDS011;10453;50.810;12.540;2022-11-20T09:13:23;29.63;;;18.02;;
20589;SDS011;10453;50.810;12.540;2022-11-20T09:17:41;32.90;;;18.40;;
20589;SDS011;10453;50.810;12.540;2022-11-20T09:21:59;30.60;;;15.37;;
20589;SDS011;10453;50.810;12.540;2022-11-20T09:26:16;30.77;;;16.33;;
20589;SDS011;10453;50.810;12.540;2022-11-20T09:30:34;30.30;;;15.90;;
20589;SDS011;10453;50.810;12.540;2022-11-20T09:34:51;28.53;;;14.77;;
20589;SDS011;10453;50.810;12.540;2022-11-20T09:39:08;26.58;;;14.90;;
20589;SDS011;10453;50.810;12.540;2022-11-20T09:48:05;29.88;;;15.90;;
20589;SDS011;10453;50.810;12.540;2022-11-20T09:57:13;26.45;;;15.32;;
20589;SDS011;10453;50.810;12.540;2022-11-20T10:01:34;33.97;;;17.17;;
20589;SDS011;10453;50.810;12.540;2022-11-20T10:05:54;34.47;;;19.15;;
20589;SDS011;10453;50.810;12.540;2022-11-20T10:10:15;36.78;;;19.48;;
20589;SDS011;10453;50.810;12.540;2022-11-20T10:14:41;39.53;;;19.92;;
20589;SDS011;10453;50.810;12.540;2022-11-20T10:19:10;40.88;;;20.13;;
20589;SDS011;10453;50.810;12.540;2022-11-20T10:28:13;38.83;;;20.50;;
20589;SDS011;10453;50.810;12.540;2022-11-20T10:32:53;48.28;;;23.80;;
20589;SDS011;10453;50.810;12.540;2022-11-20T10:37:19;44.38;;;22.77;;
20589;SDS011;10453;50.810;12.540;2022-11-20T10:41:41;42.13;;;22.70;;
20589;SDS011;10453;50.810;12.540;2022-11-20T10:46:08;47.10;;;23.25;;
20589;SDS011;10453;50.810;12.540;2022-11-20T10:50:30;43.70;;;22.95;;
20589;SDS011;10453;50.810;12.540;2022-11-20T10:55:05;62.70;;;29.15;;
20589;SDS011;10453;50.810;12.540;2022-11-20T11:04:37;45.33;;;24.77;;
20589;SDS011;10453;50.810;12.540;2022-11-20T11:09:00;38.55;;;20.90;;
20589;SDS011;10453;50.810;12.540;2022-11-20T11:13:28;40.25;;;21.98;;
20589;SDS011;10453;50.810;12.540;2022-11-20T11:17:47;36.05;;;19.70;;
20589;SDS011;10453;50.810;12.540;2022-11-20T11:22:04;39.90;;;23.73;;
20589;SDS011;10453;50.810;12.540;2022-11-20T11:26:33;39.63;;;22.15;;
20589;SDS011;10453;50.810;12.540;2022-11-20T11:30:50;37.35;;;20.52;;
20589;SDS011;10453;50.810;12.540;2022-11-20T11:35:24;38.77;;;21.30;;
20589;SDS011;10453;50.810;12.540;2022-11-20T11:39:43;41.05;;;22.40;;
20589;SDS011;10453;50.810;12.540;2022-11-20T11:44:15;39.08;;;22.48;;
20589;SDS011;10453;50.810;12.540;2022-11-20T11:48:56;37.80;;;20.00;;
20589;SDS011;10453;50.810;12.540;2022-11-20T11:53:18;36.63;;;20.25;;
20589;SDS011;10453;50.810;12.540;2022-11-20T12:02:04;34.58;;;18.33;;
20589;SDS011;10453;50.810;12.540;2022-11-20T12:06:53;34.35;;;18.92;;
20589;SDS011;10453;50.810;12.540;2022-11-20T12:11:38;37.17;;;19.17;;
20589;SDS011;10453;50.810;12.540;2022-11-20T12:16:02;32.10;;;17.10;;
20589;SDS011;10453;50.810;12.540;2022-11-20T12:20:21;34.17;;;19.35;;
20589;SDS011;10453;50.810;12.540;2022-11-20T12:24:44;34.75;;;19.15;;
20589;SDS011;10453;50.810;12.540;2022-11-20T12:29:13;35.17;;;17.48;;
20589;SDS011;10453;50.810;12.540;2022-11-20T12:39:06;33.15;;;16.90;;
20589;SDS011;10453;50.810;12.540;2022-11-20T12:43:37;35.83;;;18.13;;
20589;SDS011;10453;50.810;12.540;2022-11-20T12:53:04;34.92;;;17.95;;
20589;SDS011;10453;50.810;12.540;2022-11-20T12:57:36;38.38;;;21.98;;
20589;SDS011;10453;50.810;12.540;2022-11-20T13:02:28;33.88;;;18.73;;
20589;SDS011;10453;50.810;12.540;2022-11-20T13:06:56;37.28;;;18.40;;
20589;SDS011;10453;50.810;12.540;2022-11-20T13:15:51;34.22;;;18.15;;
20589;SDS011;10453;50.810;12.540;2022-11-20T13:20:17;38.38;;;20.52;;
20589;SDS011;10453;50.810;12.540;2022-11-20T13:24:35;42.63;;;21.48;;
20589;SDS011;10453;50.810;12.540;2022-11-20T13:28:59;42.95;;;21.08;;
20589;SDS011;10453;50.810;12.540;2022-11-20T13:33:37;41.20;;;23.13;;
20589;SDS011;10453;50.810;12.540;2022-11-20T13:42:23;37.25;;;20.65;;
20589;SDS011;10453;50.810;12.540;2022-11-20T13:46:45;38.70;;;20.65;;
20589;SDS011;10453;50.810;12.540;2022-11-20T13:51:12;34.30;;;18.48;;
20589;SDS011;10453;50.810;12.540;2022-11-20T14:00:17;37.25;;;20.38;;
20589;SDS011;10453;50.810;12.540;2022-11-20T14:04:36;48.30;;;23.42;;
20589;SDS011;10453;50.810;12.540;2022-11-20T14:08:59;37.17;;;20.83;;
20589;SDS011;10453;50.810;12.540;2022-11-20T14:13:18;34.78;;;19.25;;
20589;SDS011;10453;50.810;12.540;2022-11-20T14:17:36;39.30;;;19.73;;
20589;SDS011;10453;50.810;12.540;2022-11-20T14:22:06;43.58;;;22.52;;
20589;SDS011;10453;50.810;12.540;2022-11-20T14:26:32;33.65;;;19.13;;
20589;SDS011;10453;50.810;12.540;2022-11-20T14:30:50;35.42;;;19.73;;
20589;SDS011;10453;50.810;12.540;2022-11-20T14:35:09;35.65;;;19.23;;
20589;SDS011;10453;50.810;12.540;2022-11-20T14:39:32;37.13;;;19.08;;
20589;SDS011;10453;50.810;12.540;2022-11-20T14:43:55;38.60;;;19.52;;
20589;SDS011;10453;50.810;12.540;2022-11-20T14:48:14;30.38;;;15.68;;
20589;SDS011;10453;50.810;12.540;2022-11-20T14:52:32;30.83;;;16.85;;
20589;SDS011;10453;50.810;12.540;2022-11-20T14:56:56;33.23;;;18.00;;
20589;SDS011;10453;50.810;12.540;2022-11-20T15:01:15;33.42;;;17.55;;
20589;SDS011;10453;50.810;12.540;2022-11-20T15:05:47;28.55;;;15.48;;
20589;SDS011;10453;50.810;12.540;2022-11-20T15:10:07;33.47;;;17.80;;
20589;SDS011;10453;50.810;12.540;2022-11-20T15:14:27;35.47;;;18.90;;
20589;SDS011;10453;50.810;12.540;2022-11-20T15:18:46;33.47;;;18.77;;
20589;SDS011;10453;50.810;12.540;2022-11-20T15:23:09;43.63;;;21.90;;
20589;SDS011;10453;50.810;12.540;2022-11-20T15:27:31;34.70;;;18.95;;
20589;SDS011;10453;50.810;12.540;2022-11-20T15:31:48;50.73;;;25.00;;
20589;SDS011;10453;50.810;12.540;2022-11-20T15:36:07;56.50;;;28.65;;
20589;SDS011;10453;50.810;12.540;2022-11-20T15:40:25;53.15;;;27.10;;
20589;SDS011;10453;50.810;12.540;2022-11-20T15:44:42;53.17;;;28.37;;
20589;SDS011;10453;50.810;12.540;2022-11-20T15:49:00;43.38;;;23.67;;
20589;SDS011;10453;50.810;12.540;2022-11-20T15:53:17;45.08;;;23.38;;
20589;SDS011;10453;50.810;12.540;2022-11-20T15:57:35;47.08;;;26.13;;
20589;SDS011;10453;50.810;12.540;2022-11-20T16:01:52;41.70;;;22.73;;
20589;SDS011;10453;50.810;12.540;2022-11-20T16:06:10;44.80;;;23.23;;
20589;SDS011;10453;50.810;12.540;2022-11-20T16:10:27;48.17;;;27.17;;
20589;SDS011;10453;50.810;12.540;2022-11-20T16:14:45;50.35;;;21.85;;
20589;SDS011;10453;50.810;12.540;2022-11-20T16:19:29;41.92;;;21.33;;
20589;SDS011;10453;50.810;12.540;2022-11-20T16:23:46;42.17;;;23.00;;
20589;SDS011;10453;50.810;12.540;2022-11-20T16:28:03;39.67;;;20.20;;
20589;SDS011;10453;50.810;12.540;2022-11-20T16:32:21;60.30;;;30.70;;
20589;SDS011;10453;50.810;12.540;2022-11-20T16:36:41;101.93;;;44.92;;
20589;SDS011;10453;50.810;12.540;2022-11-20T16:41:01;169.43;;;66.57;;
20589;SDS011;10453;50.810;12.540;2022-11-20T16:45:19;59.15;;;25.20;;
20589;SDS011;10453;50.810;12.540;2022-11-20T16:49:43;69.20;;;31.48;;
20589;SDS011;10453;50.810;12.540;2022-11-20T16:54:01;56.80;;;26.60;;
20589;SDS011;10453;50.810;12.540;2022-11-20T16:58:19;64.72;;;29.23;;
20589;SDS011;10453;50.810;12.540;2022-11-20T17:02:36;45.90;;;21.47;;
20589;SDS011;10453;50.810;12.540;2022-11-20T17:06:53;50.80;;;23.53;;
20589;SDS011;10453;50.810;12.540;2022-11-20T17:11:14;56.80;;;25.67;;
20589;SDS011;10453;50.810;12.540;2022-11-20T17:15:33;54.33;;;26.45;;
20589;SDS011;10453;50.810;12.540;2022-11-20T17:19:50;54.07;;;25.13;;
20589;SDS011;10453;50.810;12.540;2022-11-20T17:24:09;45.23;;;22.33;;
20589;SDS011;10453;50.810;12.540;2022-11-20T17:28:28;46.13;;;22.45;;
20589;SDS011;10453;50.810;12.540;2022-11-20T17:32:46;46.97;;;21.38;;
20589;SDS011;10453;50.810;12.540;2022-11-20T17:37:03;50.88;;;24.38;;
20589;SDS011;10453;50.810;12.540;2022-11-20T17:41:22;52.92;;;24.15;;
20589;SDS011;10453;50.810;12.540;2022-11-20T17:45:41;47.53;;;21.63;;
20589;SDS011;10453;50.810;12.540;2022-11-20T17:50:00;47.65;;;23.08;;
20589;SDS011;10453;50.810;12.540;2022-11-20T17:54:17;50.63;;;23.30;;
20589;SDS011;10453;50.810;12.540;2022-11-20T17:58:34;58.47;;;27.60;;
20589;SDS011;10453;50.810;12.540;2022-11-20T18:02:52;47.97;;;23.20;;
20589;SDS011;10453;50.810;12.540;2022-11-20T18:07:09;43.90;;;21.87;;
20589;SDS011;10453;50.810;12.540;2022-11-20T18:11:34;46.38;;;22.83;;
20589;SDS011;10453;50.810;12.540;2022-11-20T18:15:53;46.55;;;22.90;;
20589;SDS011;10453;50.810;12.540;2022-11-20T18:20:10;48.30;;;23.30;;
20589;SDS011;10453;50.810;12.540;2022-11-20T18:24:47;49.70;;;23.40;;
20589;SDS011;10453;50.810;12.540;2022-11-20T18:29:05;47.72;;;23.05;;
20589;SDS011;10453;50.810;12.540;2022-11-20T18:33:23;48.05;;;24.02;;
20589;SDS011;10453;50.810;12.540;2022-11-20T18:37:44;53.55;;;25.85;;
20589;SDS011;10453;50.810;12.540;2022-11-20T18:42:01;48.40;;;22.47;;
20589;SDS011;10453;50.810;12.540;2022-11-20T18:46:37;46.95;;;24.02;;
20589;SDS011;10453;50.810;12.540;2022-11-20T18:50:55;49.13;;;23.63;;
20589;SDS011;10453;50.810;12.540;2022-11-20T18:59:41;52.60;;;24.40;;
20589;SDS011;10453;50.810;12.540;2022-11-20T19:03:59;48.90;;;24.20;;
20589;SDS011;10453;50.810;12.540;2022-11-20T19:08:16;53.43;;;26.17;;
20589;SDS011;10453;50.810;12.540;2022-11-20T19:12:33;49.60;;;25.40;;
20589;SDS011;10453;50.810;12.540;2022-11-20T19:16:51;55.80;;;25.73;;
20589;SDS011;10453;50.810;12.540;2022-11-20T19:21:08;55.07;;;27.00;;
20589;SDS011;10453;50.810;12.540;2022-11-20T19:25:29;51.38;;;25.48;;
20589;SDS011;10453;50.810;12.540;2022-11-20T19:29:53;51.53;;;25.77;;
20589;SDS011;10453;50.810;12.540;2022-11-20T19:34:18;52.70;;;25.27;;
20589;SDS011;10453;50.810;12.540;2022-11-20T19:38:36;50.77;;;25.03;;
20589;SDS011;10453;50.810;12.540;2022-11-20T19:42:57;48.92;;;24.60;;
20589;SDS011;10453;50.810;12.540;2022-11-20T19:47:14;52.28;;;24.77;;
20589;SDS011;10453;50.810;12.540;2022-11-20T19:51:32;54.40;;;26.05;;
20589;SDS011;10453;50.810;12.540;2022-11-20T19:55:54;60.00;;;30.65;;
20589;SDS011;10453;50.810;12.540;2022-11-20T20:00:12;56.00;;;28.13;;
20589;SDS011;10453;50.810;12.540;2022-11-20T20:04:37;74.80;;;38.80;;
20589;SDS011;10453;50.810;12.540;2022-11-20T20:08:59;64.75;;;33.25;;
20589;SDS011;10453;50.810;12.540;2022-11-20T20:13:20;54.65;;;28.98;;
20589;SDS011;10453;50.810;12.540;2022-11-20T20:17:37;61.78;;;31.65;;
20589;SDS011;10453;50.810;12.540;2022-11-20T20:21:54;65.22;;;33.00;;
20589;SDS011;10453;50.810;12.540;2022-11-20T20:26:12;57.40;;;28.23;;
20589;SDS011;10453;50.810;12.540;2022-11-20T20:30:29;58.03;;;26.13;;
20589;SDS011;10453;50.810;12.540;2022-11-20T20:34:46;43.53;;;23.92;;
20589;SDS011;10453;50.810;12.540;2022-11-20T20:39:03;43.40;;;23.80;;
20589;SDS011;10453;50.810;12.540;2022-11-20T20:43:21;43.83;;;22.73;;
20589;SDS011;10453;50.810;12.540;2022-11-20T20:47:39;51.03;;;24.83;;
20589;SDS011;10453;50.810;12.540;2022-11-20T20:51:56;50.55;;;24.95;;
20589;SDS011;10453;50.810;12.540;2022-11-20T20:56:14;45.83;;;23.55;;
20589;SDS011;10453;50.810;12.540;2022-11-20T21:00:31;46.63;;;23.42;;
20589;SDS011;10453;50.810;12.540;2022-11-20T21:04:48;48.92;;;23.83;;
20589;SDS011;10453;50.810;12.540;2022-11-20T21:09:06;45.72;;;22.52;;
20589;SDS011;10453;50.810;12.540;2022-11-20T21:13:23;46.08;;;23.95;;
20589;SDS011;10453;50.810;12.540;2022-11-20T21:17:40;44.85;;;24.38;;
20589;SDS011;10453;50.810;12.540;2022-11-20T21:21:59;53.08;;;24.95;;
20589;SDS011;10453;50.810;12.540;2022-11-20T21:26:20;52.67;;;24.88;;
20589;SDS011;10453;50.810;12.540;2022-11-20T21:30:37;68.10;;;28.07;;
20589;SDS011;10453;50.810;12.540;2022-11-20T21:34:54;60.65;;;26.75;;
20589;SDS011;10453;50.810;12.540;2022-11-20T21:39:12;62.30;;;27.20;;
20589;SDS011;10453;50.810;12.540;2022-11-20T21:43:30;62.08;;;25.88;;
20589;SDS011;10453;50.810;12.540;2022-11-20T21:47:47;59.95;;;26.80;;
20589;SDS011;10453;50.810;12.540;2022-11-20T21:52:06;59.10;;;25.48;;
20589;SDS011;10453;50.810;12.540;2022-11-20T21:56:23;54.22;;;23.13;;
20589;SDS011;10453;50.810;12.540;2022-11-20T22:00:42;53.03;;;22.08;;
20589;SDS011;10453;50.810;12.540;2022-11-20T22:04:59;75.07;;;27.45;;
20589;SDS011;10453;50.810;12.540;2022-11-20T22:09:16;63.78;;;25.33;;
20589;SDS011;10453;50.810;12.540;2022-11-20T22:13:34;60.35;;;24.13;;
20589;SDS011;10453;50.810;12.540;2022-11-20T22:18:10;48.92;;;21.92;;
20589;SDS011;10453;50.810;12.540;2022-11-20T22:22:30;41.50;;;19.67;;
20589;SDS011;10453;50.810;12.540;2022-11-20T22:26:47;52.20;;;25.52;;
20589;SDS011;10453;50.810;12.540;2022-11-20T22:31:06;74.30;;;29.57;;
20589;SDS011;10453;50.810;12.540;2022-11-20T22:35:25;46.13;;;21.80;;
20589;SDS011;10453;50.810;12.540;2022-11-20T22:39:42;63.75;;;23.15;;
20589;SDS011;10453;50.810;12.540;2022-11-20T22:44:00;47.13;;;19.25;;
20589;SDS011;10453;50.810;12.540;2022-11-20T22:48:19;34.30;;;16.83;;
20589;SDS011;10453;50.810;12.540;2022-11-20T22:52:37;23.30;;;14.48;;
20589;SDS011;10453;50.810;12.540;2022-11-20T22:56:54;20.00;;;12.77;;
20589;SDS011;10453;50.810;12.540;2022-11-20T23:01:15;20.25;;;12.93;;
20589;SDS011;10453;50.810;12.540;2022-11-20T23:05:33;20.65;;;12.75;;
20589;SDS011;10453;50.810;12.540;2022-11-20T23:09:50;20.45;;;12.07;;
20589;SDS011;10453;50.810;12.540;2022-11-20T23:14:12;17.23;;;11.52;;
20589;SDS011;10453;50.810;12.540;2022-11-20T23:18:30;17.23;;;11.20;;
20589;SDS011;10453;50.810;12.540;2022-11-20T23:22:48;18.10;;;11.10;;
20589;SDS011;10453;50.810;12.540;2022-11-20T23:27:05;20.30;;;12.07;;
20589;SDS011;10453;50.810;12.540;2022-11-20T23:31:23;15.13;;;10.23;;
20589;SDS011;10453;50.810;12.540;2022-11-20T23:40:01;20.42;;;11.57;;
20589;SDS011;10453;50.810;12.540;2022-11-20T23:44:19;18.43;;;10.90;;
20589;SDS011;10453;50.810;12.540;2022-11-20T23:48:36;10.68;;;8.27;;
20589;SDS011;10453;50.810;12.540;2022-11-20T23:52:54;11.23;;;7.63;;
20589;SDS011;10453;50.810;12.540;2022-11-20T23:57:11;9.13;;;7.03;;
